createdAt,value
2017-10-19T00:00:46.513Z,11.29
2017-10-19T00:03:14.042Z,11.29
2017-10-19T00:05:41.546Z,11.25
2017-10-19T00:08:09.273Z,11.23
2017-10-19T00:10:36.773Z,11.21
2017-10-19T00:13:04.274Z,11.18
2017-10-19T00:15:31.799Z,11.15
2017-10-19T00:17:59.288Z,11.12
2017-10-19T00:20:26.780Z,11.06
2017-10-19T00:22:54.319Z,11.06
2017-10-19T00:25:21.807Z,11.05
2017-10-19T00:27:49.340Z,11.04
2017-10-19T00:30:16.912Z,11.02
2017-10-19T00:32:44.444Z,11.00
2017-10-19T00:35:12.037Z,10.96
2017-10-19T00:37:39.592Z,10.95
2017-10-19T00:40:07.116Z,10.92
2017-10-19T00:42:34.649Z,10.90
2017-10-19T00:45:02.230Z,10.89
2017-10-19T00:47:29.760Z,10.91
2017-10-19T00:49:57.289Z,10.91
2017-10-19T00:52:24.879Z,10.91
2017-10-19T00:54:52.413Z,10.90
2017-10-19T00:57:19.917Z,10.89
2017-10-19T00:59:47.445Z,10.89
2017-10-19T01:02:14.946Z,10.88
2017-10-19T01:04:42.439Z,10.83
2017-10-19T01:07:10.070Z,10.81
2017-10-19T01:09:38.427Z,10.75
2017-10-19T01:12:05.919Z,10.72
2017-10-19T01:14:33.443Z,10.73
2017-10-19T01:17:00.934Z,10.72
2017-10-19T01:19:28.428Z,10.70
2017-10-19T01:21:55.963Z,10.73
2017-10-19T01:24:23.459Z,10.71
2017-10-19T01:26:50.956Z,10.69
2017-10-19T01:29:18.615Z,10.65
2017-10-19T01:31:46.108Z,10.63
2017-10-19T01:34:13.606Z,10.63
2017-10-19T01:36:41.156Z,10.63
2017-10-19T01:39:08.656Z,10.62
2017-10-19T01:41:36.154Z,10.63
2017-10-19T01:44:03.695Z,10.63
2017-10-19T01:46:31.228Z,10.63
2017-10-19T01:48:58.720Z,10.63
2017-10-19T01:51:26.258Z,10.61
2017-10-19T01:53:53.757Z,10.58
2017-10-19T01:56:21.252Z,10.58
2017-10-19T01:58:48.924Z,10.60
2017-10-19T02:01:16.420Z,10.58
2017-10-19T02:03:43.930Z,10.56
2017-10-19T02:06:11.495Z,10.54
2017-10-19T02:08:38.992Z,10.52
2017-10-19T02:11:06.509Z,10.51
2017-10-19T02:13:34.068Z,10.49
2017-10-19T02:16:01.568Z,10.43
2017-10-19T02:18:29.058Z,10.41
2017-10-19T02:20:56.748Z,10.41
2017-10-19T02:23:24.247Z,10.41
2017-10-19T02:25:51.736Z,10.41
2017-10-19T02:28:19.349Z,10.39
2017-10-19T02:30:46.841Z,10.39
2017-10-19T02:33:14.332Z,10.38
2017-10-19T02:35:41.882Z,10.39
2017-10-19T02:38:09.380Z,10.40
2017-10-19T02:40:36.877Z,10.40
2017-10-19T02:43:04.479Z,10.38
2017-10-19T02:45:32.039Z,10.36
2017-10-19T02:47:59.536Z,10.34
2017-10-19T02:50:27.063Z,10.34
2017-10-19T02:52:54.613Z,10.35
2017-10-19T02:55:22.170Z,10.34
2017-10-19T02:57:49.740Z,10.31
2017-10-19T03:00:17.231Z,10.29
2017-10-19T03:02:44.763Z,10.30
2017-10-19T03:05:12.307Z,10.30
2017-10-19T03:07:39.868Z,10.27
2017-10-19T03:10:07.523Z,10.24
2017-10-19T03:12:35.020Z,10.20
2017-10-19T03:15:02.512Z,10.18
2017-10-19T03:17:30.043Z,10.18
2017-10-19T03:19:57.530Z,10.19
2017-10-19T03:22:25.036Z,10.20
2017-10-19T03:24:52.675Z,10.14
2017-10-19T03:27:20.171Z,10.09
2017-10-19T03:29:47.663Z,10.07
2017-10-19T03:32:15.208Z,10.10
2017-10-19T03:34:42.696Z,10.19
2017-10-19T03:37:10.196Z,10.14
2017-10-19T03:39:37.837Z,10.11
2017-10-19T03:42:05.339Z,10.11
2017-10-19T03:44:32.849Z,10.07
2017-10-19T03:47:00.411Z,10.04
2017-10-19T03:49:27.965Z,10.08
2017-10-19T03:51:55.460Z,10.06
2017-10-19T03:54:23.000Z,10.06
2017-10-19T03:56:50.503Z,10.05
2017-10-19T03:59:17.996Z,10.04
2017-10-19T04:01:45.525Z,10.03
2017-10-19T04:04:13.021Z,10.01
2017-10-19T04:06:40.508Z,9.99
2017-10-19T04:09:08.034Z,9.98
2017-10-19T04:11:35.532Z,9.95
2017-10-19T04:14:03.026Z,9.94
2017-10-19T04:16:30.544Z,9.90
2017-10-19T04:18:58.068Z,9.88
2017-10-19T04:21:25.544Z,9.82
2017-10-19T04:23:53.286Z,9.89
2017-10-19T04:26:20.845Z,9.91
2017-10-19T04:28:48.403Z,9.88
2017-10-19T04:31:15.973Z,9.84
2017-10-19T04:33:43.520Z,9.85
2017-10-19T04:36:11.007Z,9.84
2017-10-19T04:38:38.627Z,9.85
2017-10-19T04:41:06.113Z,9.79
2017-10-19T04:43:33.595Z,9.74
2017-10-19T04:46:01.194Z,9.66
2017-10-19T04:48:28.689Z,9.59
2017-10-19T04:50:56.231Z,9.55
2017-10-19T04:53:23.798Z,9.58
2017-10-19T04:55:51.354Z,9.56
2017-10-19T04:58:18.852Z,9.56
2017-10-19T05:00:46.420Z,9.51
2017-10-19T05:03:13.913Z,9.45
2017-10-19T05:05:41.406Z,9.43
2017-10-19T05:08:08.953Z,9.45
2017-10-19T05:10:36.448Z,9.53
2017-10-19T05:13:03.940Z,9.60
2017-10-19T05:15:31.620Z,9.68
2017-10-19T05:17:59.111Z,9.76
2017-10-19T05:20:26.608Z,9.86
2017-10-19T05:22:54.155Z,9.93
2017-10-19T05:25:21.651Z,10.01
2017-10-19T05:27:49.146Z,10.07
2017-10-19T05:30:16.688Z,10.13
2017-10-19T05:32:44.183Z,10.18
2017-10-19T05:35:11.679Z,10.18
2017-10-19T05:37:39.340Z,10.21
2017-10-19T05:40:06.924Z,10.23
2017-10-19T05:42:34.462Z,10.26
2017-10-19T05:45:01.987Z,10.31
2017-10-19T05:47:29.489Z,10.38
2017-10-19T05:49:56.984Z,10.44
2017-10-19T05:52:24.595Z,10.48
2017-10-19T05:54:52.161Z,10.51
2017-10-19T05:57:19.715Z,10.51
2017-10-19T05:59:47.372Z,10.42
2017-10-19T06:02:14.868Z,10.36
2017-10-19T06:04:42.363Z,10.40
2017-10-19T06:07:10.052Z,10.44
2017-10-19T06:09:37.607Z,10.48
2017-10-19T06:12:05.107Z,10.53
2017-10-19T06:14:32.652Z,10.62
2017-10-19T06:17:00.145Z,10.66
2017-10-19T06:19:27.641Z,10.72
2017-10-19T06:21:55.169Z,10.70
2017-10-19T06:24:22.677Z,10.60
2017-10-19T06:26:50.335Z,10.62
2017-10-19T06:29:17.833Z,10.51
2017-10-19T06:31:45.343Z,10.50
2017-10-19T06:34:12.884Z,10.61
2017-10-19T06:36:40.373Z,10.72
2017-10-19T06:39:07.888Z,10.80
2017-10-19T06:41:35.598Z,10.86
2017-10-19T06:44:03.091Z,10.88
2017-10-19T06:46:30.594Z,10.86
2017-10-19T06:48:58.255Z,10.87
2017-10-19T06:51:25.745Z,10.91
2017-10-19T06:53:53.246Z,10.95
2017-10-19T06:56:20.786Z,10.95
2017-10-19T06:58:48.285Z,10.97
2017-10-19T07:01:15.784Z,11.06
2017-10-19T07:03:43.363Z,11.06
2017-10-19T07:06:10.884Z,11.09
2017-10-19T07:08:38.381Z,10.91
2017-10-19T07:11:05.983Z,10.89
2017-10-19T07:13:33.479Z,10.91
2017-10-19T07:16:00.970Z,10.86
2017-10-19T07:18:28.554Z,10.91
2017-10-19T07:20:56.048Z,10.88
2017-10-19T07:23:23.543Z,10.85
2017-10-19T07:25:51.080Z,10.63
2017-10-19T07:28:18.568Z,10.64
2017-10-19T07:30:46.066Z,10.67
2017-10-19T07:33:13.595Z,10.71
2017-10-19T07:35:41.088Z,10.90
2017-10-19T07:38:08.593Z,10.90
2017-10-19T07:40:36.148Z,10.91
2017-10-19T07:43:03.640Z,10.90
2017-10-19T07:45:31.203Z,10.85
2017-10-19T07:47:58.748Z,10.69
2017-10-19T07:50:26.257Z,10.69
2017-10-19T07:52:53.753Z,10.79
2017-10-19T07:55:21.355Z,11.05
2017-10-19T07:57:48.854Z,11.35
2017-10-19T08:00:16.353Z,11.61
2017-10-19T08:02:43.888Z,11.64
2017-10-19T08:05:12.353Z,11.83
2017-10-19T08:07:39.842Z,11.86
2017-10-19T08:10:07.383Z,11.63
2017-10-19T08:12:34.881Z,11.62
2017-10-19T08:15:02.428Z,11.72
2017-10-19T08:17:29.965Z,11.58
2017-10-19T08:19:57.456Z,11.53
2017-10-19T08:22:24.995Z,11.25
2017-10-19T08:24:52.510Z,11.27
2017-10-19T08:27:20.037Z,11.36
2017-10-19T08:29:47.591Z,11.35
2017-10-19T08:32:15.087Z,11.37
2017-10-19T08:34:42.718Z,11.43
2017-10-19T08:37:10.238Z,11.36
2017-10-19T08:39:37.816Z,11.48
2017-10-19T08:42:05.310Z,11.45
2017-10-19T08:44:32.848Z,11.62
2017-10-19T08:47:00.398Z,11.81
2017-10-19T08:49:27.885Z,11.85
2017-10-19T08:51:55.408Z,11.75
2017-10-19T08:54:22.900Z,11.88
2017-10-19T08:56:50.424Z,11.90
2017-10-19T08:59:17.955Z,12.00
2017-10-19T09:01:45.448Z,12.24
2017-10-19T09:04:12.991Z,12.32
2017-10-19T09:06:40.523Z,12.27
2017-10-19T09:09:08.031Z,12.28
2017-10-19T09:11:35.521Z,12.05
2017-10-19T09:14:03.065Z,12.02
2017-10-19T09:16:30.583Z,12.23
2017-10-19T09:18:58.086Z,12.10
2017-10-19T09:21:25.619Z,12.10
2017-10-19T09:23:53.107Z,12.09
2017-10-19T09:26:20.610Z,12.15
2017-10-19T09:28:48.178Z,12.16
2017-10-19T09:31:15.736Z,12.22
2017-10-19T09:33:43.229Z,12.33
2017-10-19T09:36:10.772Z,12.31
2017-10-19T09:38:38.263Z,12.37
2017-10-19T09:41:05.775Z,12.50
2017-10-19T09:43:33.354Z,12.63
2017-10-19T09:46:00.848Z,12.79
2017-10-19T09:48:28.342Z,12.75
2017-10-19T09:50:56.013Z,12.90
2017-10-19T09:53:23.511Z,13.21
2017-10-19T09:55:51.003Z,13.40
2017-10-19T09:58:18.683Z,13.53
2017-10-19T10:00:46.180Z,13.48
2017-10-19T10:03:13.711Z,13.57
2017-10-19T10:05:41.241Z,13.59
2017-10-19T10:08:08.739Z,13.58
2017-10-19T10:10:36.282Z,13.42
2017-10-19T10:13:03.840Z,13.42
2017-10-19T10:15:31.326Z,13.48
2017-10-19T10:17:58.815Z,13.67
2017-10-19T10:20:26.355Z,13.70
2017-10-19T10:22:53.868Z,13.48
2017-10-19T10:25:21.372Z,13.46
2017-10-19T10:27:48.988Z,13.47
2017-10-19T10:30:16.476Z,13.56
2017-10-19T10:32:43.971Z,13.82
2017-10-19T10:35:11.567Z,13.98
2017-10-19T10:37:39.060Z,14.15
2017-10-19T10:40:06.586Z,14.32
2017-10-19T10:42:34.124Z,14.61
2017-10-19T10:45:01.625Z,14.42
2017-10-19T10:47:29.138Z,14.34
2017-10-19T10:49:56.663Z,14.49
2017-10-19T10:52:24.161Z,14.62
2017-10-19T10:54:51.681Z,14.66
2017-10-19T10:57:19.213Z,14.63
2017-10-19T10:59:46.708Z,14.35
2017-10-19T11:02:14.311Z,14.35
2017-10-19T11:04:41.856Z,14.46
2017-10-19T11:07:09.353Z,14.56
2017-10-19T11:09:36.857Z,14.57
2017-10-19T11:12:04.408Z,14.44
2017-10-19T11:14:31.903Z,14.28
2017-10-19T11:16:59.464Z,14.06
2017-10-19T11:19:26.992Z,14.28
2017-10-19T11:21:54.491Z,14.27
2017-10-19T11:24:22.040Z,14.27
2017-10-19T11:26:49.585Z,14.42
2017-10-19T11:29:17.082Z,14.55
2017-10-19T11:31:44.580Z,14.51
2017-10-19T11:34:12.105Z,14.49
2017-10-19T11:36:39.605Z,14.32
2017-10-19T11:39:07.092Z,14.15
2017-10-19T11:41:34.630Z,14.19
2017-10-19T11:44:02.204Z,14.16
2017-10-19T11:46:29.701Z,13.94
2017-10-19T11:48:57.237Z,13.93
2017-10-19T11:51:24.737Z,13.90
2017-10-19T11:53:52.252Z,14.11
2017-10-19T11:56:19.780Z,14.24
2017-10-19T11:58:47.274Z,14.38
2017-10-19T12:01:14.764Z,14.61
2017-10-19T12:03:42.294Z,14.76
2017-10-19T12:06:09.825Z,14.98
2017-10-19T12:08:37.367Z,14.93
2017-10-19T12:11:04.927Z,15.06
2017-10-19T12:13:32.422Z,14.80
2017-10-19T12:15:59.911Z,14.80
2017-10-19T12:18:27.437Z,14.87
2017-10-19T12:20:54.936Z,15.06
2017-10-19T12:23:22.537Z,15.19
2017-10-19T12:25:50.111Z,15.12
2017-10-19T12:28:17.613Z,15.03
2017-10-19T12:30:45.109Z,14.88
2017-10-19T12:33:12.628Z,14.64
2017-10-19T12:35:40.133Z,14.66
2017-10-19T12:38:07.664Z,14.75
2017-10-19T12:40:35.252Z,14.78
2017-10-19T12:43:02.747Z,14.66
2017-10-19T12:45:30.291Z,14.65
2017-10-19T12:47:57.835Z,14.60
2017-10-19T12:50:25.340Z,14.69
2017-10-19T12:52:53.043Z,14.81
2017-10-19T12:55:20.529Z,14.95
2017-10-19T12:57:48.066Z,14.78
2017-10-19T13:00:15.731Z,14.47
2017-10-19T13:02:43.228Z,14.28
2017-10-19T13:05:10.732Z,14.21
2017-10-19T13:07:38.408Z,14.24
2017-10-19T13:10:05.972Z,14.31
2017-10-19T13:12:33.465Z,14.28
2017-10-19T13:15:01.003Z,14.29
2017-10-19T13:17:28.500Z,14.17
2017-10-19T13:19:56.007Z,14.05
2017-10-19T13:22:23.545Z,14.12
2017-10-19T13:24:51.043Z,14.23
2017-10-19T13:27:18.546Z,14.19
2017-10-19T13:29:46.086Z,14.11
2017-10-19T13:32:13.583Z,14.14
2017-10-19T13:34:41.146Z,14.21
2017-10-19T13:37:08.677Z,14.28
2017-10-19T13:39:36.168Z,14.20
2017-10-19T13:42:03.730Z,14.09
2017-10-19T13:44:31.262Z,13.96
2017-10-19T13:46:58.759Z,13.96
2017-10-19T13:49:26.259Z,13.99
2017-10-19T13:51:53.805Z,14.00
2017-10-19T13:54:21.295Z,14.03
2017-10-19T13:56:48.883Z,13.86
2017-10-19T13:59:16.411Z,13.96
2017-10-19T14:01:43.998Z,14.08
2017-10-19T14:04:11.555Z,14.09
2017-10-19T14:06:39.215Z,14.14
2017-10-19T14:09:06.715Z,14.18
2017-10-19T14:11:34.243Z,14.18
2017-10-19T14:14:01.810Z,14.16
2017-10-19T14:16:29.303Z,14.22
2017-10-19T14:18:56.818Z,14.27
2017-10-19T14:21:24.348Z,14.33
2017-10-19T14:23:51.854Z,14.26
2017-10-19T14:26:19.353Z,14.25
2017-10-19T14:28:46.878Z,14.26
2017-10-19T14:31:14.379Z,14.27
2017-10-19T14:33:42.060Z,14.24
2017-10-19T14:36:09.576Z,14.25
2017-10-19T14:38:37.084Z,14.27
2017-10-19T14:41:04.623Z,14.22
2017-10-19T14:43:32.116Z,14.21
2017-10-19T14:45:59.612Z,14.16
2017-10-19T14:48:27.161Z,14.14
2017-10-19T14:50:54.661Z,14.13
2017-10-19T14:53:22.255Z,14.11
2017-10-19T14:55:49.797Z,14.09
2017-10-19T14:58:17.298Z,14.05
2017-10-19T15:00:44.862Z,14.05
2017-10-19T15:03:12.361Z,14.00
2017-10-19T15:05:39.958Z,13.98
2017-10-19T15:08:07.498Z,13.98
2017-10-19T15:10:35.039Z,13.95
2017-10-19T15:13:02.698Z,13.92
2017-10-19T15:15:30.291Z,13.84
2017-10-19T15:17:57.801Z,13.82
2017-10-19T15:20:25.518Z,13.81
2017-10-19T15:22:53.076Z,13.82
2017-10-19T15:25:20.594Z,13.78
2017-10-19T15:27:48.150Z,13.74
2017-10-19T15:30:15.654Z,13.71
2017-10-19T15:32:43.217Z,13.68
2017-10-19T15:35:10.761Z,13.66
2017-10-19T15:37:38.275Z,13.63
2017-10-19T15:40:05.787Z,13.60
2017-10-19T15:42:33.336Z,13.55
2017-10-19T15:45:01.055Z,13.53
2017-10-19T15:47:28.582Z,13.50
2017-10-19T15:49:56.108Z,13.44
2017-10-19T15:52:23.786Z,13.39
2017-10-19T15:54:51.291Z,13.35
2017-10-19T15:57:18.803Z,13.31
2017-10-19T15:59:46.384Z,13.29
2017-10-19T16:02:13.935Z,13.26
2017-10-19T16:04:41.513Z,13.23
2017-10-19T16:07:09.825Z,13.19
2017-10-19T16:09:37.392Z,13.17
2017-10-19T16:12:04.920Z,13.13
2017-10-19T16:14:32.451Z,13.03
2017-10-19T16:17:00.028Z,13.05
2017-10-19T16:19:27.653Z,13.05
2017-10-19T16:21:56.982Z,13.07
2017-10-19T16:24:24.621Z,13.09
2017-10-19T16:29:25.930Z,13.09
2017-10-19T16:31:53.470Z,13.11
2017-10-19T16:34:21.003Z,13.12
2017-10-19T16:36:48.540Z,13.18
2017-10-19T16:39:16.255Z,13.16
2017-10-19T16:41:43.758Z,13.14
2017-10-19T16:44:11.264Z,13.10
2017-10-19T16:46:38.795Z,13.14
2017-10-19T16:49:06.292Z,13.17
2017-10-19T16:51:33.888Z,13.18
2017-10-19T16:54:01.424Z,13.13
2017-10-19T16:56:28.935Z,13.13
2017-10-19T16:58:56.435Z,13.03
2017-10-19T17:01:24.134Z,12.94
2017-10-19T17:03:51.636Z,12.89
2017-10-19T17:06:19.145Z,12.88
2017-10-19T17:08:46.977Z,12.86
2017-10-19T17:11:14.473Z,12.83
2017-10-19T17:13:41.975Z,12.84
2017-10-19T17:16:09.524Z,12.83
2017-10-19T17:18:37.020Z,12.84
2017-10-19T17:21:04.516Z,12.84
2017-10-19T17:23:32.072Z,12.87
2017-10-19T17:25:59.569Z,12.93
2017-10-19T17:28:27.069Z,12.99
2017-10-19T17:30:54.644Z,13.04
2017-10-19T17:33:22.174Z,13.07
2017-10-19T17:35:49.685Z,13.13
2017-10-19T17:38:17.334Z,13.17
2017-10-19T17:40:44.836Z,13.13
2017-10-19T17:43:12.326Z,13.21
2017-10-19T17:45:39.999Z,13.17
2017-10-19T17:48:07.551Z,13.12
2017-10-19T17:50:35.078Z,13.07
2017-10-19T17:53:02.795Z,13.04
2017-10-19T17:55:30.322Z,13.04
2017-10-19T17:57:57.905Z,13.03
2017-10-19T18:00:25.497Z,13.02
2017-10-19T18:02:53.012Z,12.96
2017-10-19T18:05:20.522Z,12.93
2017-10-19T18:07:48.215Z,12.94
2017-10-19T18:10:15.750Z,12.93
2017-10-19T18:12:43.270Z,12.94
2017-10-19T18:15:10.833Z,12.97
2017-10-19T18:17:38.361Z,12.99
2017-10-19T18:20:05.893Z,13.00
2017-10-19T18:22:33.430Z,13.02
2017-10-19T18:25:01.005Z,13.04
2017-10-19T18:27:28.520Z,13.05
2017-10-19T18:29:56.022Z,13.06
2017-10-19T18:32:23.733Z,13.02
2017-10-19T18:34:51.330Z,13.01
2017-10-19T18:37:18.862Z,13.02
2017-10-19T18:39:46.424Z,13.01
2017-10-19T18:42:13.933Z,13.05
2017-10-19T18:44:41.457Z,13.03
2017-10-19T18:47:09.044Z,13.04
2017-10-19T18:49:36.549Z,13.04
2017-10-19T18:52:04.068Z,13.03
2017-10-19T18:54:31.958Z,13.02
2017-10-19T18:56:59.452Z,13.03
2017-10-19T18:59:26.950Z,13.00
2017-10-19T19:01:54.488Z,12.97
2017-10-19T19:04:21.987Z,12.94
2017-10-19T19:06:49.572Z,12.85
2017-10-19T19:09:17.320Z,12.79
2017-10-19T19:11:44.881Z,12.72
2017-10-19T19:14:12.375Z,12.69
2017-10-19T19:16:39.924Z,12.67
2017-10-19T19:19:07.420Z,12.62
2017-10-19T19:21:35.032Z,12.60
2017-10-19T19:24:02.560Z,12.57
2017-10-19T19:26:30.134Z,12.56
2017-10-19T19:28:57.690Z,12.57
2017-10-19T19:31:25.567Z,12.58
2017-10-19T19:33:53.064Z,12.60
2017-10-19T19:36:20.584Z,12.62
2017-10-19T19:38:48.435Z,12.60
2017-10-19T19:41:16.019Z,12.60
2017-10-19T19:43:43.512Z,12.59
2017-10-19T19:46:11.326Z,12.62
2017-10-19T19:48:38.888Z,12.61
2017-10-19T19:51:06.452Z,12.57
2017-10-19T19:53:33.972Z,12.61
2017-10-19T19:56:01.563Z,12.65
2017-10-19T19:58:29.059Z,12.63
2017-10-19T20:00:56.591Z,12.63
2017-10-19T20:03:24.095Z,12.57
2017-10-19T20:05:51.595Z,12.53
2017-10-19T20:08:19.137Z,12.51
2017-10-19T20:10:46.632Z,12.53
2017-10-19T20:13:14.137Z,12.52
2017-10-19T20:15:41.675Z,12.51
2017-10-19T20:18:09.189Z,12.52
2017-10-19T20:20:36.763Z,12.56
2017-10-19T20:23:04.287Z,12.60
2017-10-19T20:25:31.790Z,12.68
2017-10-19T20:27:59.348Z,12.73
2017-10-19T20:30:26.842Z,12.78
2017-10-19T20:32:54.332Z,12.85
2017-10-19T20:35:21.865Z,12.81
2017-10-19T20:37:49.475Z,12.79
2017-10-19T20:40:16.967Z,12.78
2017-10-19T20:42:44.685Z,12.67
2017-10-19T20:45:12.237Z,12.59
2017-10-19T20:47:39.771Z,12.54
2017-10-19T20:50:07.320Z,12.53
2017-10-19T20:52:34.873Z,12.53
2017-10-19T20:55:02.384Z,12.55
2017-10-19T20:57:29.920Z,12.54
2017-10-19T20:59:57.483Z,12.50
2017-10-19T21:02:24.980Z,12.46
2017-10-19T21:04:52.711Z,12.43
2017-10-19T21:07:20.215Z,12.43
2017-10-19T21:09:47.731Z,12.38
2017-10-19T21:12:15.384Z,12.37
2017-10-19T21:14:42.951Z,12.34
2017-10-19T21:17:10.449Z,12.28
2017-10-19T21:19:37.963Z,12.26
2017-10-19T21:22:05.472Z,12.25
2017-10-19T21:24:32.999Z,12.20
2017-10-19T21:27:00.501Z,12.14
2017-10-19T21:29:28.004Z,12.08
2017-10-19T21:31:55.552Z,12.08
2017-10-19T21:34:23.047Z,12.04
2017-10-19T21:36:50.596Z,12.01
2017-10-19T21:39:18.115Z,11.98
2017-10-19T21:41:45.621Z,11.97
2017-10-19T21:44:13.264Z,11.98
2017-10-19T21:46:40.912Z,11.98
2017-10-19T21:49:08.420Z,12.01
2017-10-19T21:51:36.031Z,12.02
2017-10-19T21:54:03.583Z,12.04
2017-10-19T21:56:31.079Z,12.07
2017-10-19T21:58:58.626Z,12.08
2017-10-19T22:01:26.175Z,12.08
2017-10-19T22:03:53.667Z,12.11
2017-10-19T22:06:21.162Z,12.11
2017-10-19T22:08:48.686Z,12.15
2017-10-19T22:11:16.199Z,12.15
2017-10-19T22:13:43.691Z,12.18
2017-10-19T22:16:11.415Z,12.20
2017-10-19T22:18:38.985Z,12.20
2017-10-19T22:21:06.536Z,12.20
2017-10-19T22:23:34.121Z,12.17
2017-10-19T22:26:01.665Z,12.16
2017-10-19T22:28:29.226Z,12.16
2017-10-19T22:30:56.763Z,12.17
2017-10-19T22:33:24.327Z,12.16
2017-10-19T22:35:51.913Z,12.16
2017-10-19T22:38:19.451Z,12.14
2017-10-19T22:40:46.954Z,12.17
2017-10-19T22:43:14.444Z,12.15
2017-10-19T22:45:42.051Z,12.11
2017-10-19T22:48:09.552Z,12.09
2017-10-19T22:50:37.047Z,12.06
2017-10-19T22:53:04.568Z,12.07
2017-10-19T22:55:32.164Z,12.09
2017-10-19T22:57:59.720Z,12.03
2017-10-19T23:00:28.071Z,12.03
2017-10-19T23:02:55.556Z,12.01
2017-10-19T23:05:23.063Z,11.98
2017-10-19T23:07:50.679Z,11.94
2017-10-19T23:10:18.243Z,11.93
2017-10-19T23:12:45.749Z,11.90
2017-10-19T23:15:13.268Z,11.86
2017-10-19T23:17:40.766Z,11.84
2017-10-19T23:20:08.263Z,11.80
2017-10-19T23:22:35.829Z,11.76
2017-10-19T23:25:04.145Z,11.72
2017-10-19T23:27:31.644Z,11.70
2017-10-19T23:29:59.164Z,11.67
2017-10-19T23:32:26.659Z,11.66
2017-10-19T23:34:54.159Z,11.61
2017-10-19T23:37:21.901Z,11.59
2017-10-19T23:39:49.396Z,11.58
2017-10-19T23:42:16.915Z,11.54
2017-10-19T23:44:44.479Z,11.54
2017-10-19T23:47:12.109Z,11.50
2017-10-19T23:49:39.610Z,11.48
2017-10-19T23:52:07.147Z,11.47
2017-10-19T23:54:34.652Z,11.49
2017-10-19T23:57:02.154Z,11.46
2017-10-19T23:59:29.827Z,11.48
